sensor_id;sensor_type;location;lat;lon;timestamp;pressure;altitude;pressure_sealevel;temperature;humidity
46722;BME280;32455;43.430;23.136;2023-07-20T14:46:35;97583.66;;;30.77;47.16
46722;BME280;32455;43.430;23.136;2023-07-20T14:49:20;97589.28;;;30.61;46.79
46722;BME280;32455;43.430;23.136;2023-07-20T14:52:06;97585.91;;;30.72;47.23
46722;BME280;32455;43.430;23.136;2023-07-20T14:54:51;97573.50;;;30.85;46.80
46722;BME280;32455;43.430;23.136;2023-07-20T14:57:36;97595.00;;;30.91;45.93
46722;BME280;32455;43.430;23.136;2023-07-20T15:00:23;97601.91;;;31.01;46.66
46722;BME280;32455;43.430;23.136;2023-07-20T15:03:08;97592.72;;;30.97;45.84
46722;BME280;32455;43.430;23.136;2023-07-20T15:05:54;97601.97;;;30.82;46.56
46722;BME280;32455;43.430;23.136;2023-07-20T15:08:40;97590.59;;;30.67;44.70
46722;BME280;32455;43.430;23.136;2023-07-20T15:11:27;97590.75;;;30.75;46.09
46722;BME280;32455;43.430;23.136;2023-07-20T15:14:13;97592.69;;;30.32;46.81
46722;BME280;32455;43.430;23.136;2023-07-20T15:16:58;97590.63;;;30.48;48.95
46722;BME280;32455;43.430;23.136;2023-07-20T15:19:43;97592.06;;;30.81;47.67
46722;BME280;32455;43.430;23.136;2023-07-20T15:22:29;97585.19;;;30.75;47.71
46722;BME280;32455;43.430;23.136;2023-07-20T15:25:14;97598.72;;;30.76;47.22
46722;BME280;32455;43.430;23.136;2023-07-20T15:28:00;97599.75;;;30.49;47.48
46722;BME280;32455;43.430;23.136;2023-07-20T15:30:45;97595.28;;;30.63;47.41
46722;BME280;32455;43.430;23.136;2023-07-20T15:33:31;97596.31;;;30.55;48.35
46722;BME280;32455;43.430;23.136;2023-07-20T15:36:18;97602.88;;;30.24;48.05
46722;BME280;32455;43.430;23.136;2023-07-20T15:39:04;97611.47;;;30.61;48.72
46722;BME280;32455;43.430;23.136;2023-07-20T15:41:50;97604.63;;;30.55;48.16
46722;BME280;32455;43.430;23.136;2023-07-20T15:44:36;97604.03;;;30.65;48.51
46722;BME280;32455;43.430;23.136;2023-07-20T15:47:22;97602.81;;;30.21;51.28
46722;BME280;32455;43.430;23.136;2023-07-20T15:50:10;97595.03;;;30.10;53.28
46722;BME280;32455;43.430;23.136;2023-07-20T15:52:55;97599.56;;;30.18;53.75
46722;BME280;32455;43.430;23.136;2023-07-20T15:55:40;97601.00;;;30.32;53.09
46722;BME280;32455;43.430;23.136;2023-07-20T15:58:26;97601.25;;;30.23;54.01
46722;BME280;32455;43.430;23.136;2023-07-20T16:01:11;97605.03;;;30.34;51.06
46722;BME280;32455;43.430;23.136;2023-07-20T16:03:57;97625.25;;;30.15;51.40
46722;BME280;32455;43.430;23.136;2023-07-20T16:06:42;97600.72;;;29.79;53.42
46722;BME280;32455;43.430;23.136;2023-07-20T16:09:28;97616.34;;;30.26;52.97
46722;BME280;32455;43.430;23.136;2023-07-20T16:12:13;97616.81;;;29.92;53.89
46722;BME280;32455;43.430;23.136;2023-07-20T16:14:59;97619.59;;;29.92;55.59
46722;BME280;32455;43.430;23.136;2023-07-20T16:17:44;97626.81;;;29.78;55.24
46722;BME280;32455;43.430;23.136;2023-07-20T16:20:30;97627.69;;;30.01;54.69
46722;BME280;32455;43.430;23.136;2023-07-20T16:23:16;97624.19;;;29.85;58.66
46722;BME280;32455;43.430;23.136;2023-07-20T16:26:03;97626.47;;;29.63;61.56
46722;BME280;32455;43.430;23.136;2023-07-20T16:28:48;97629.41;;;29.55;59.32
46722;BME280;32455;43.430;23.136;2023-07-20T16:31:34;97637.56;;;29.48;61.35
46722;BME280;32455;43.430;23.136;2023-07-20T16:34:20;97637.91;;;29.46;60.90
46722;BME280;32455;43.430;23.136;2023-07-20T16:37:04;97611.47;;;29.13;63.57
46722;BME280;32455;43.430;23.136;2023-07-20T16:39:52;97631.06;;;28.92;69.09
46722;BME280;32455;43.430;23.136;2023-07-20T16:42:38;97640.16;;;28.61;74.24
46722;BME280;32455;43.430;23.136;2023-07-20T16:45:24;97625.03;;;28.31;76.93
46722;BME280;32455;43.430;23.136;2023-07-20T16:48:10;97634.53;;;28.17;78.31
46722;BME280;32455;43.430;23.136;2023-07-20T16:50:56;97629.00;;;27.89;82.16
46722;BME280;32455;43.430;23.136;2023-07-20T16:53:42;97630.88;;;27.85;82.63
46722;BME280;32455;43.430;23.136;2023-07-20T16:56:27;97633.50;;;27.69;82.85
46722;BME280;32455;43.430;23.136;2023-07-20T16:59:13;97643.75;;;27.69;83.71
46722;BME280;32455;43.430;23.136;2023-07-20T17:01:58;97650.00;;;27.54;84.62
46722;BME280;32455;43.430;23.136;2023-07-20T17:04:47;97649.28;;;27.44;86.85
46722;BME280;32455;43.430;23.136;2023-07-20T17:07:33;97638.47;;;27.15;88.24
46722;BME280;32455;43.430;23.136;2023-07-20T17:10:18;97646.66;;;27.11;90.34
46722;BME280;32455;43.430;23.136;2023-07-20T17:13:04;97669.00;;;26.97;90.46
46722;BME280;32455;43.430;23.136;2023-07-20T17:15:50;97649.22;;;26.83;92.42
46722;BME280;32455;43.430;23.136;2023-07-20T17:18:35;97650.88;;;26.51;92.75
46722;BME280;32455;43.430;23.136;2023-07-20T17:21:20;97663.38;;;26.49;95.88
46722;BME280;32455;43.430;23.136;2023-07-20T17:24:06;97657.66;;;26.33;97.00
46722;BME280;32455;43.430;23.136;2023-07-20T17:26:52;97662.59;;;26.27;99.12
46722;BME280;32455;43.430;23.136;2023-07-20T17:29:37;97658.50;;;26.12;100.00
46722;BME280;32455;43.430;23.136;2023-07-20T17:32:23;97664.41;;;26.02;100.00
46722;BME280;32455;43.430;23.136;2023-07-20T17:35:08;97670.78;;;25.94;100.00
46722;BME280;32455;43.430;23.136;2023-07-20T17:37:57;97674.75;;;25.84;100.00
46722;BME280;32455;43.430;23.136;2023-07-20T17:40:42;97674.28;;;25.73;100.00
46722;BME280;32455;43.430;23.136;2023-07-20T17:43:28;97663.59;;;25.51;100.00
46722;BME280;32455;43.430;23.136;2023-07-20T17:46:13;97675.59;;;25.46;100.00
46722;BME280;32455;43.430;23.136;2023-07-20T17:48:59;97683.94;;;25.29;100.00
46722;BME280;32455;43.430;23.136;2023-07-20T17:51:50;97659.13;;;24.99;100.00
46722;BME280;32455;43.430;23.136;2023-07-20T17:54:35;97669.81;;;25.10;100.00
46722;BME280;32455;43.430;23.136;2023-07-20T17:57:20;97673.06;;;24.94;100.00
46722;BME280;32455;43.430;23.136;2023-07-20T18:00:06;97695.84;;;24.95;100.00
46722;BME280;32455;43.430;23.136;2023-07-20T18:02:54;97669.44;;;24.64;100.00
46722;BME280;32455;43.430;23.136;2023-07-20T18:05:40;97692.34;;;24.77;100.00
46722;BME280;32455;43.430;23.136;2023-07-20T18:08:26;97679.13;;;24.53;100.00
46722;BME280;32455;43.430;23.136;2023-07-20T18:11:11;97698.06;;;24.37;100.00
46722;BME280;32455;43.430;23.136;2023-07-20T18:13:56;97704.97;;;24.35;100.00
46722;BME280;32455;43.430;23.136;2023-07-20T18:16:41;97709.66;;;24.26;100.00
46722;BME280;32455;43.430;23.136;2023-07-20T18:19:28;97701.44;;;24.08;100.00
46722;BME280;32455;43.430;23.136;2023-07-20T18:22:14;97704.00;;;24.05;100.00
46722;BME280;32455;43.430;23.136;2023-07-20T18:25:00;97696.22;;;23.89;100.00
46722;BME280;32455;43.430;23.136;2023-07-20T18:27:46;97710.78;;;23.98;100.00
46722;BME280;32455;43.430;23.136;2023-07-20T18:30:33;97706.09;;;23.90;100.00
46722;BME280;32455;43.430;23.136;2023-07-20T18:33:19;97719.47;;;23.83;100.00
46722;BME280;32455;43.430;23.136;2023-07-20T18:36:04;97706.56;;;23.75;100.00
46722;BME280;32455;43.430;23.136;2023-07-20T18:38:51;97704.00;;;23.87;100.00
46722;BME280;32455;43.430;23.136;2023-07-20T18:41:37;97703.53;;;23.94;100.00
46722;BME280;32455;43.430;23.136;2023-07-20T18:44:23;97722.91;;;24.15;100.00
46722;BME280;32455;43.430;23.136;2023-07-20T18:47:09;97735.19;;;24.35;100.00
46722;BME280;32455;43.430;23.136;2023-07-20T18:49:55;97726.16;;;24.26;100.00
46722;BME280;32455;43.430;23.136;2023-07-20T18:52:41;97735.50;;;24.16;100.00
46722;BME280;32455;43.430;23.136;2023-07-20T18:55:28;97748.28;;;24.20;100.00
46722;BME280;32455;43.430;23.136;2023-07-20T18:58:15;97750.03;;;24.16;100.00
46722;BME280;32455;43.430;23.136;2023-07-20T19:01:00;97762.47;;;24.31;100.00
46722;BME280;32455;43.430;23.136;2023-07-20T19:03:46;97750.34;;;24.23;100.00
46722;BME280;32455;43.430;23.136;2023-07-20T19:06:32;97758.94;;;24.22;100.00
46722;BME280;32455;43.430;23.136;2023-07-20T19:09:17;97769.09;;;24.21;100.00
46722;BME280;32455;43.430;23.136;2023-07-20T19:12:03;97776.38;;;24.26;100.00
46722;BME280;32455;43.430;23.136;2023-07-20T19:14:49;97754.22;;;24.14;100.00
46722;BME280;32455;43.430;23.136;2023-07-20T19:17:35;97771.78;;;23.87;100.00
46722;BME280;32455;43.430;23.136;2023-07-20T19:20:20;97785.34;;;23.92;100.00
46722;BME280;32455;43.430;23.136;2023-07-20T19:23:05;97782.13;;;23.90;100.00
46722;BME280;32455;43.430;23.136;2023-07-20T19:25:50;97785.66;;;23.82;100.00
46722;BME280;32455;43.430;23.136;2023-07-20T19:28:36;97789.19;;;23.73;100.00
46722;BME280;32455;43.430;23.136;2023-07-20T19:31:21;97779.41;;;23.59;100.00
46722;BME280;32455;43.430;23.136;2023-07-20T19:34:07;97794.31;;;23.66;100.00
46722;BME280;32455;43.430;23.136;2023-07-20T19:36:53;97794.72;;;23.51;100.00
46722;BME280;32455;43.430;23.136;2023-07-20T19:39:38;97796.75;;;23.37;100.00
46722;BME280;32455;43.430;23.136;2023-07-20T19:42:24;97795.31;;;23.39;100.00
46722;BME280;32455;43.430;23.136;2023-07-20T19:45:09;97799.53;;;23.45;100.00
46722;BME280;32455;43.430;23.136;2023-07-20T19:47:55;97803.06;;;23.46;100.00
46722;BME280;32455;43.430;23.136;2023-07-20T19:50:43;97799.38;;;23.50;100.00
46722;BME280;32455;43.430;23.136;2023-07-20T19:53:31;97791.47;;;23.49;100.00
46722;BME280;32455;43.430;23.136;2023-07-20T19:56:17;97793.44;;;23.57;100.00
46722;BME280;32455;43.430;23.136;2023-07-20T19:59:02;97794.50;;;23.70;100.00
46722;BME280;32455;43.430;23.136;2023-07-20T20:01:47;97777.47;;;23.59;100.00
46722;BME280;32455;43.430;23.136;2023-07-20T20:04:32;97788.53;;;23.77;100.00
46722;BME280;32455;43.430;23.136;2023-07-20T20:07:17;97795.47;;;23.74;100.00
46722;BME280;32455;43.430;23.136;2023-07-20T20:10:06;97813.13;;;23.90;100.00
46722;BME280;32455;43.430;23.136;2023-07-20T20:12:51;97802.44;;;23.89;100.00
46722;BME280;32455;43.430;23.136;2023-07-20T20:15:40;97805.53;;;23.96;100.00
46722;BME280;32455;43.430;23.136;2023-07-20T20:18:26;97806.19;;;23.93;100.00
46722;BME280;32455;43.430;23.136;2023-07-20T20:21:13;97805.22;;;23.97;100.00
46722;BME280;32455;43.430;23.136;2023-07-20T20:23:59;97802.63;;;23.92;100.00
46722;BME280;32455;43.430;23.136;2023-07-20T20:26:46;97807.28;;;23.83;100.00
46722;BME280;32455;43.430;23.136;2023-07-20T20:29:31;97803.13;;;23.94;100.00
46722;BME280;32455;43.430;23.136;2023-07-20T20:32:16;97810.38;;;23.90;100.00
46722;BME280;32455;43.430;23.136;2023-07-20T20:35:02;97810.63;;;23.71;100.00
46722;BME280;32455;43.430;23.136;2023-07-20T20:37:50;97804.06;;;23.81;100.00
46722;BME280;32455;43.430;23.136;2023-07-20T20:40:35;97784.88;;;23.59;100.00
46722;BME280;32455;43.430;23.136;2023-07-20T20:43:21;97814.88;;;23.86;100.00
46722;BME280;32455;43.430;23.136;2023-07-20T20:46:06;97810.16;;;23.69;100.00
46722;BME280;32455;43.430;23.136;2023-07-20T20:48:57;97809.53;;;23.50;100.00
46722;BME280;32455;43.430;23.136;2023-07-20T20:51:43;97798.38;;;23.46;100.00
46722;BME280;32455;43.430;23.136;2023-07-20T20:54:29;97809.97;;;23.66;100.00
46722;BME280;32455;43.430;23.136;2023-07-20T20:57:15;97808.28;;;23.56;100.00
46722;BME280;32455;43.430;23.136;2023-07-20T21:00:01;97807.97;;;23.58;100.00
46722;BME280;32455;43.430;23.136;2023-07-20T21:02:46;97791.75;;;23.39;100.00
46722;BME280;32455;43.430;23.136;2023-07-20T21:05:34;97817.47;;;23.52;100.00
46722;BME280;32455;43.430;23.136;2023-07-20T21:08:21;97814.97;;;23.41;100.00
46722;BME280;32455;43.430;23.136;2023-07-20T21:11:09;97802.88;;;23.42;100.00
46722;BME280;32455;43.430;23.136;2023-07-20T21:13:54;97806.63;;;23.46;100.00
46722;BME280;32455;43.430;23.136;2023-07-20T21:16:40;97806.63;;;23.46;100.00
46722;BME280;32455;43.430;23.136;2023-07-20T21:19:26;97827.75;;;23.68;100.00
46722;BME280;32455;43.430;23.136;2023-07-20T21:22:11;97824.59;;;23.61;100.00
46722;BME280;32455;43.430;23.136;2023-07-20T21:24:57;97825.41;;;23.62;100.00
46722;BME280;32455;43.430;23.136;2023-07-20T21:27:42;97819.59;;;23.63;100.00
46722;BME280;32455;43.430;23.136;2023-07-20T21:30:28;97821.19;;;23.56;100.00
46722;BME280;32455;43.430;23.136;2023-07-20T21:33:13;97815.16;;;23.45;100.00
46722;BME280;32455;43.430;23.136;2023-07-20T21:35:59;97824.91;;;23.51;100.00
46722;BME280;32455;43.430;23.136;2023-07-20T21:38:45;97825.34;;;23.44;100.00
46722;BME280;32455;43.430;23.136;2023-07-20T21:41:29;97833.06;;;23.42;100.00
46722;BME280;32455;43.430;23.136;2023-07-20T21:44:14;97808.59;;;23.23;100.00
46722;BME280;32455;43.430;23.136;2023-07-20T21:47:00;97821.19;;;23.24;100.00
46722;BME280;32455;43.430;23.136;2023-07-20T21:49:46;97812.34;;;23.28;100.00
46722;BME280;32455;43.430;23.136;2023-07-20T21:52:31;97833.97;;;23.07;100.00
46722;BME280;32455;43.430;23.136;2023-07-20T21:55:16;97818.31;;;22.85;100.00
46722;BME280;32455;43.430;23.136;2023-07-20T21:58:08;97831.03;;;22.81;100.00
46722;BME280;32455;43.430;23.136;2023-07-20T22:00:53;97821.69;;;22.82;100.00
46722;BME280;32455;43.430;23.136;2023-07-20T22:03:40;97827.53;;;22.66;100.00
46722;BME280;32455;43.430;23.136;2023-07-20T22:06:32;97821.88;;;22.63;100.00
46722;BME280;32455;43.430;23.136;2023-07-20T22:09:17;97828.81;;;22.69;100.00
46722;BME280;32455;43.430;23.136;2023-07-20T22:12:05;97826.53;;;22.62;100.00
46722;BME280;32455;43.430;23.136;2023-07-20T22:14:53;97841.03;;;22.63;100.00
46722;BME280;32455;43.430;23.136;2023-07-20T22:17:42;97804.84;;;22.16;100.00
46722;BME280;32455;43.430;23.136;2023-07-20T22:20:29;97837.38;;;22.17;100.00
46722;BME280;32455;43.430;23.136;2023-07-20T22:23:14;97819.75;;;21.55;100.00
46722;BME280;32455;43.430;23.136;2023-07-20T22:25:59;97809.00;;;21.44;100.00
46722;BME280;32455;43.430;23.136;2023-07-20T22:28:45;97809.19;;;21.34;100.00
46722;BME280;32455;43.430;23.136;2023-07-20T22:31:30;97823.00;;;21.24;100.00
46722;BME280;32455;43.430;23.136;2023-07-20T22:34:16;97817.56;;;20.91;100.00
46722;BME280;32455;43.430;23.136;2023-07-20T22:37:05;97825.63;;;20.64;100.00
46722;BME280;32455;43.430;23.136;2023-07-20T22:39:51;97842.72;;;20.88;100.00
46722;BME280;32455;43.430;23.136;2023-07-20T22:42:36;97839.97;;;21.40;100.00
46722;BME280;32455;43.430;23.136;2023-07-20T22:45:22;97819.31;;;21.47;100.00
46722;BME280;32455;43.430;23.136;2023-07-20T22:48:08;97806.47;;;21.62;100.00
46722;BME280;32455;43.430;23.136;2023-07-20T22:50:53;97815.69;;;21.93;100.00
46722;BME280;32455;43.430;23.136;2023-07-20T22:53:42;97869.91;;;22.33;100.00
46722;BME280;32455;43.430;23.136;2023-07-20T22:56:27;97848.00;;;22.33;100.00
46722;BME280;32455;43.430;23.136;2023-07-20T22:59:13;97855.28;;;22.37;100.00
46722;BME280;32455;43.430;23.136;2023-07-20T23:01:59;97834.13;;;22.02;100.00
46722;BME280;32455;43.430;23.136;2023-07-20T23:04:46;97831.50;;;21.83;100.00
46722;BME280;32455;43.430;23.136;2023-07-20T23:07:31;97864.53;;;21.72;100.00
46722;BME280;32455;43.430;23.136;2023-07-20T23:10:17;97862.59;;;21.26;100.00
46722;BME280;32455;43.430;23.136;2023-07-20T23:13:03;97865.09;;;20.90;100.00
46722;BME280;32455;43.430;23.136;2023-07-20T23:15:48;97842.41;;;20.57;100.00
46722;BME280;32455;43.430;23.136;2023-07-20T23:18:35;97862.47;;;20.66;100.00
46722;BME280;32455;43.430;23.136;2023-07-20T23:21:20;97830.63;;;20.38;100.00
46722;BME280;32455;43.430;23.136;2023-07-20T23:24:06;97842.00;;;20.45;100.00
46722;BME280;32455;43.430;23.136;2023-07-20T23:26:50;97835.59;;;20.55;100.00
46722;BME280;32455;43.430;23.136;2023-07-20T23:29:37;97841.56;;;20.75;100.00
46722;BME280;32455;43.430;23.136;2023-07-20T23:32:22;97866.84;;;21.00;100.00
46722;BME280;32455;43.430;23.136;2023-07-20T23:35:08;97865.63;;;21.25;100.00
46722;BME280;32455;43.430;23.136;2023-07-20T23:37:57;97827.97;;;21.22;100.00
46722;BME280;32455;43.430;23.136;2023-07-20T23:40:46;97848.22;;;21.67;100.00
46722;BME280;32455;43.430;23.136;2023-07-20T23:43:35;97849.72;;;21.87;99.46
46722;BME280;32455;43.430;23.136;2023-07-20T23:46:20;97858.94;;;22.05;96.68
46722;BME280;32455;43.430;23.136;2023-07-20T23:49:10;97837.59;;;21.93;94.85
46722;BME280;32455;43.430;23.136;2023-07-20T23:51:59;97806.09;;;21.68;92.17
46722;BME280;32455;43.430;23.136;2023-07-20T23:54:44;97843.16;;;22.02;90.11
46722;BME280;32455;43.430;23.136;2023-07-20T23:57:43;97822.09;;;21.89;87.43
